createdAt,value
2017-09-25T00:02:09.903Z,29.33
2017-09-25T00:04:40.825Z,23.10
2017-09-25T00:07:12.726Z,24.97
2017-09-25T00:09:44.408Z,27.77
2017-09-25T00:12:15.340Z,20.87
2017-09-25T00:14:46.670Z,23.57
2017-09-25T00:17:17.694Z,20.10
2017-09-25T00:19:48.674Z,26.70
2017-09-25T00:22:19.590Z,26.07
2017-09-25T00:24:51.279Z,31.20
2017-09-25T00:27:22.236Z,24.10
2017-09-25T00:29:53.166Z,30.20
2017-09-25T00:32:24.179Z,21.90
2017-09-25T00:34:55.092Z,33.17
2017-09-25T00:37:27.200Z,23.33
2017-09-25T00:39:58.094Z,23.63
2017-09-25T00:42:30.431Z,28.17
2017-09-25T00:45:01.341Z,25.03
2017-09-25T00:47:32.275Z,31.10
2017-09-25T00:50:04.130Z,32.57
2017-09-25T00:52:45.655Z,36.43
2017-09-25T00:55:27.220Z,55.90
2017-09-25T00:57:58.209Z,53.07
2017-09-25T01:00:40.459Z,59.77
2017-09-25T01:03:22.627Z,62.17
2017-09-25T01:06:04.830Z,35.90
2017-09-25T01:08:36.503Z,44.77
2017-09-25T01:11:07.870Z,41.10
2017-09-25T01:13:38.780Z,35.53
2017-09-25T01:16:11.162Z,30.83
2017-09-25T01:18:42.147Z,35.47
2017-09-25T01:21:13.059Z,36.97
2017-09-25T01:23:44.517Z,45.23
2017-09-25T01:26:15.554Z,32.17
2017-09-25T01:28:46.906Z,36.30
2017-09-25T01:31:18.921Z,39.27
2017-09-25T01:33:50.623Z,42.97
2017-09-25T01:36:21.527Z,40.13
2017-09-25T01:38:53.212Z,34.37
2017-09-25T01:41:24.788Z,42.47
2017-09-25T01:43:56.516Z,49.70
2017-09-25T01:46:27.509Z,54.67
2017-09-25T01:48:59.168Z,45.87
2017-09-25T01:51:30.867Z,51.10
2017-09-25T01:54:02.972Z,50.20
2017-09-25T01:56:33.884Z,79.80
2017-09-25T01:59:05.299Z,62.00
2017-09-25T02:01:36.970Z,61.23
2017-09-25T02:04:08.134Z,45.50
2017-09-25T02:06:39.058Z,45.23
2017-09-25T02:09:10.028Z,49.93
2017-09-25T02:11:41.331Z,44.53
2017-09-25T02:14:12.215Z,39.97
2017-09-25T02:16:43.412Z,34.83
2017-09-25T02:19:14.319Z,47.53
2017-09-25T02:21:46.003Z,45.47
2017-09-25T02:24:16.900Z,47.10
2017-09-25T02:26:47.819Z,53.00
2017-09-25T02:29:19.182Z,50.50
2017-09-25T02:31:50.109Z,55.50
2017-09-25T02:34:21.053Z,58.67
2017-09-25T02:36:51.966Z,39.60
2017-09-25T02:39:22.876Z,39.70
2017-09-25T02:41:54.633Z,43.47
2017-09-25T02:44:25.551Z,33.13
2017-09-25T02:46:57.552Z,39.23
2017-09-25T02:49:28.482Z,46.57
2017-09-25T02:51:59.771Z,36.50
2017-09-25T02:54:31.503Z,40.37
2017-09-25T02:57:03.333Z,33.80
2017-09-25T02:59:34.626Z,35.37
2017-09-25T03:02:06.298Z,31.93
2017-09-25T03:04:37.207Z,41.00
2017-09-25T03:07:08.139Z,33.57
2017-09-25T03:09:39.058Z,33.27
2017-09-25T03:12:11.269Z,47.20
2017-09-25T03:14:42.183Z,40.73
2017-09-25T03:17:13.307Z,35.47
2017-09-25T03:19:44.232Z,27.10
2017-09-25T03:22:15.907Z,29.37
2017-09-25T03:24:46.817Z,28.80
2017-09-25T03:27:18.539Z,34.63
2017-09-25T03:29:49.887Z,31.07
2017-09-25T03:32:20.831Z,32.07
2017-09-25T03:34:51.761Z,32.07
2017-09-25T03:37:22.702Z,17.73
2017-09-25T03:39:53.631Z,25.10
2017-09-25T03:42:24.975Z,20.50
2017-09-25T03:44:55.869Z,15.03
2017-09-25T03:47:27.769Z,18.50
2017-09-25T03:49:58.675Z,11.17
2017-09-25T03:52:30.383Z,14.87
2017-09-25T03:55:01.312Z,15.50
2017-09-25T03:57:32.234Z,12.93
2017-09-25T04:00:03.571Z,14.20
2017-09-25T04:02:34.508Z,12.87
2017-09-25T04:05:05.464Z,8.23
2017-09-25T04:07:36.382Z,13.17
2017-09-25T04:10:07.278Z,9.60
2017-09-25T04:12:39.404Z,8.67
2017-09-25T04:15:10.476Z,16.13
2017-09-25T04:17:41.401Z,11.40
2017-09-25T04:20:12.341Z,16.73
2017-09-25T04:22:43.257Z,16.17
2017-09-25T04:25:14.586Z,13.27
2017-09-25T04:27:45.491Z,13.17
2017-09-25T04:30:16.782Z,12.63
2017-09-25T04:32:49.067Z,13.13
2017-09-25T04:35:19.979Z,14.23
2017-09-25T04:37:50.898Z,14.40
2017-09-25T04:40:22.580Z,13.60
2017-09-25T04:42:53.820Z,12.10
2017-09-25T04:45:24.734Z,16.33
2017-09-25T04:47:56.441Z,13.73
2017-09-25T04:50:27.356Z,11.37
2017-09-25T04:52:59.170Z,12.90
2017-09-25T04:55:30.431Z,12.40
2017-09-25T04:58:02.169Z,12.17
2017-09-25T05:00:34.219Z,22.40
2017-09-25T05:03:05.122Z,12.90
2017-09-25T05:05:36.024Z,12.13
2017-09-25T05:08:07.713Z,29.33
2017-09-25T05:10:38.631Z,17.53
2017-09-25T05:13:10.663Z,17.70
2017-09-25T05:15:41.554Z,14.40
2017-09-25T05:18:12.495Z,13.53
2017-09-25T05:20:43.422Z,13.67
2017-09-25T05:23:14.318Z,13.47
2017-09-25T05:25:45.610Z,13.97
2017-09-25T05:28:16.533Z,12.83
2017-09-25T05:30:48.322Z,13.40
2017-09-25T05:33:19.262Z,12.40
2017-09-25T05:35:50.169Z,21.30
2017-09-25T05:38:21.856Z,11.73
2017-09-25T05:40:52.778Z,10.80
2017-09-25T05:43:24.154Z,10.33
2017-09-25T05:45:55.057Z,13.73
2017-09-25T05:48:25.951Z,11.33
2017-09-25T05:50:56.940Z,11.30
2017-09-25T05:53:27.850Z,10.40
2017-09-25T05:56:00.051Z,9.77
2017-09-25T05:58:31.018Z,11.87
2017-09-25T06:01:02.323Z,10.97
2017-09-25T06:03:34.849Z,10.70
2017-09-25T06:06:05.754Z,10.57
2017-09-25T06:08:36.676Z,9.53
2017-09-25T06:11:07.577Z,11.17
2017-09-25T06:13:39.551Z,10.70
2017-09-25T06:16:11.223Z,18.63
2017-09-25T06:18:42.912Z,11.40
2017-09-25T06:21:13.802Z,10.27
2017-09-25T06:23:45.487Z,9.07
2017-09-25T06:26:16.833Z,15.00
2017-09-25T06:28:47.755Z,9.90
2017-09-25T06:31:19.614Z,9.47
2017-09-25T06:33:51.292Z,22.30
2017-09-25T06:36:22.212Z,10.13
2017-09-25T06:38:53.888Z,9.80
2017-09-25T06:41:24.825Z,11.23
2017-09-25T06:43:56.066Z,13.00
2017-09-25T06:46:26.981Z,11.30
2017-09-25T06:48:58.700Z,12.47
2017-09-25T06:51:29.608Z,10.50
2017-09-25T06:54:01.302Z,10.30
2017-09-25T06:56:32.931Z,12.07
2017-09-25T06:59:03.912Z,12.83
2017-09-25T07:01:35.098Z,16.90
2017-09-25T07:04:06.059Z,11.17
2017-09-25T07:06:36.967Z,12.43
2017-09-25T07:11:42.462Z,16.10
2017-09-25T07:14:13.516Z,12.20
2017-09-25T07:16:44.440Z,18.93
2017-09-25T07:19:15.345Z,12.13
2017-09-25T07:21:47.827Z,19.60
2017-09-25T07:24:19.510Z,9.70
2017-09-25T07:26:50.913Z,8.13
2017-09-25T07:29:22.591Z,9.83
2017-09-25T07:31:53.466Z,11.27
2017-09-25T07:34:24.387Z,9.53
2017-09-25T07:36:55.331Z,14.33
2017-09-25T07:39:26.258Z,10.80
2017-09-25T07:41:57.166Z,11.50
2017-09-25T07:44:29.370Z,12.27
2017-09-25T07:47:00.283Z,13.73
2017-09-25T07:49:31.259Z,11.97
2017-09-25T07:52:02.383Z,10.57
2017-09-25T07:54:33.330Z,17.87
2017-09-25T07:57:04.538Z,19.20
2017-09-25T07:59:36.222Z,14.03
2017-09-25T08:02:07.142Z,17.13
2017-09-25T08:04:38.050Z,19.20
2017-09-25T08:07:09.722Z,13.60
2017-09-25T08:09:41.751Z,19.00
2017-09-25T08:12:12.656Z,11.30
2017-09-25T08:14:44.075Z,12.90
2017-09-25T08:17:15.741Z,11.27
2017-09-25T08:19:47.198Z,12.03
2017-09-25T08:22:18.107Z,11.50
2017-09-25T08:24:49.784Z,16.73
2017-09-25T08:27:20.725Z,12.43
2017-09-25T08:29:51.671Z,15.97
2017-09-25T08:32:22.587Z,15.77
2017-09-25T08:34:54.279Z,17.80
2017-09-25T08:37:25.496Z,14.33
2017-09-25T08:39:57.591Z,22.60
2017-09-25T08:42:28.519Z,15.17
2017-09-25T08:44:59.752Z,17.87
2017-09-25T08:47:30.686Z,23.27
2017-09-25T08:50:01.606Z,14.83
2017-09-25T08:52:33.288Z,16.30
2017-09-25T08:55:04.266Z,13.50
2017-09-25T08:57:35.454Z,16.87
2017-09-25T09:00:07.135Z,15.50
2017-09-25T09:02:38.067Z,13.20
2017-09-25T09:05:09.003Z,22.50
2017-09-25T09:07:39.912Z,25.60
2017-09-25T09:10:11.998Z,19.40
2017-09-25T09:12:42.953Z,14.50
2017-09-25T09:15:14.284Z,15.00
2017-09-25T09:17:45.189Z,16.40
2017-09-25T09:20:16.103Z,12.27
2017-09-25T09:22:47.011Z,12.97
2017-09-25T09:25:17.938Z,11.30
2017-09-25T09:27:49.280Z,12.47
2017-09-25T09:30:20.211Z,14.80
2017-09-25T09:32:51.954Z,13.20
2017-09-25T09:35:23.608Z,16.67
2017-09-25T09:37:54.544Z,13.80
2017-09-25T09:40:25.827Z,19.00
2017-09-25T09:42:56.747Z,20.53
2017-09-25T09:45:28.931Z,15.47
2017-09-25T09:47:59.853Z,13.17
2017-09-25T09:50:31.567Z,15.27
2017-09-25T09:53:03.103Z,16.47
2017-09-25T09:55:34.022Z,15.53
2017-09-25T09:58:05.283Z,24.93
2017-09-25T10:00:36.201Z,14.03
2017-09-25T10:03:07.131Z,13.63
2017-09-25T10:05:38.035Z,19.57
2017-09-25T10:08:09.042Z,14.00
2017-09-25T10:10:39.929Z,34.63
2017-09-25T10:13:11.630Z,19.17
2017-09-25T10:15:42.960Z,22.03
2017-09-25T10:18:13.888Z,21.97
2017-09-25T10:20:44.861Z,14.17
2017-09-25T10:23:15.778Z,13.50
2017-09-25T10:25:46.716Z,17.10
2017-09-25T10:28:17.949Z,13.83
2017-09-25T10:30:49.655Z,15.30
2017-09-25T10:33:20.527Z,15.20
2017-09-25T10:35:52.202Z,29.07
2017-09-25T10:38:23.127Z,19.33
2017-09-25T10:40:55.363Z,21.73
2017-09-25T10:43:26.289Z,23.00
2017-09-25T10:45:57.703Z,14.17
2017-09-25T10:48:28.631Z,26.40
2017-09-25T10:51:00.334Z,26.43
2017-09-25T10:53:31.295Z,14.63
2017-09-25T10:56:02.236Z,14.23
2017-09-25T10:58:33.537Z,13.63
2017-09-25T11:01:04.621Z,18.40
2017-09-25T11:03:36.426Z,19.47
2017-09-25T11:06:07.441Z,16.40
2017-09-25T11:08:38.462Z,11.50
2017-09-25T11:11:10.806Z,15.80
2017-09-25T11:13:41.811Z,9.90
2017-09-25T11:16:13.170Z,18.20
2017-09-25T11:18:44.152Z,12.53
2017-09-25T11:21:16.019Z,13.60
2017-09-25T11:23:47.783Z,13.37
2017-09-25T11:26:19.562Z,15.13
2017-09-25T11:28:50.913Z,12.33
2017-09-25T11:31:21.918Z,9.97
2017-09-25T11:33:52.922Z,14.37
2017-09-25T11:36:23.985Z,42.63
2017-09-25T11:38:54.984Z,35.10
2017-09-25T11:41:26.160Z,28.70
2017-09-25T11:43:57.173Z,35.20
2017-09-25T11:46:28.770Z,42.43
2017-09-25T11:48:59.858Z,42.97
2017-09-25T11:51:31.095Z,48.43
2017-09-25T11:54:02.123Z,45.77
2017-09-25T11:56:33.976Z,35.67
2017-09-25T11:59:06.244Z,54.23
2017-09-25T12:01:38.038Z,72.60
2017-09-25T12:04:09.048Z,70.13
2017-09-25T12:06:40.846Z,50.10
2017-09-25T12:09:11.921Z,50.10
2017-09-25T12:11:43.455Z,43.97
2017-09-25T12:14:14.434Z,39.53
2017-09-25T12:16:46.631Z,27.90
2017-09-25T12:19:17.649Z,24.37
2017-09-25T12:21:49.512Z,35.77
2017-09-25T12:24:20.869Z,26.43
2017-09-25T12:26:51.878Z,14.47
2017-09-25T12:29:23.357Z,11.97
2017-09-25T12:31:55.208Z,17.03
2017-09-25T12:34:27.020Z,12.17
2017-09-25T12:36:58.086Z,13.90
2017-09-25T12:39:29.156Z,11.00
2017-09-25T12:42:01.160Z,10.67
2017-09-25T12:44:32.185Z,17.13
2017-09-25T12:47:03.193Z,12.80
2017-09-25T12:49:34.984Z,10.47
2017-09-25T12:52:06.766Z,14.53
2017-09-25T12:54:38.151Z,11.17
2017-09-25T12:57:09.183Z,15.03
2017-09-25T12:59:40.542Z,9.40
2017-09-25T13:02:12.347Z,15.40
2017-09-25T13:04:43.420Z,19.80
2017-09-25T13:07:14.449Z,21.37
2017-09-25T13:09:45.485Z,15.97
2017-09-25T13:12:16.890Z,15.73
2017-09-25T13:14:48.640Z,13.30
2017-09-25T13:17:20.430Z,12.47
2017-09-25T13:19:51.454Z,9.70
2017-09-25T13:22:22.455Z,14.30
2017-09-25T13:24:53.836Z,10.03
2017-09-25T13:27:25.693Z,11.57
2017-09-25T13:29:57.026Z,17.77
2017-09-25T13:32:28.048Z,22.63
2017-09-25T13:34:59.082Z,11.77
2017-09-25T13:37:30.113Z,12.50
2017-09-25T13:40:01.125Z,18.87
2017-09-25T13:42:33.386Z,16.53
2017-09-25T13:45:04.403Z,13.53
2017-09-25T13:47:36.182Z,11.17
2017-09-25T13:50:07.251Z,11.97
2017-09-25T13:52:38.319Z,9.67
2017-09-25T13:55:09.799Z,13.10
2017-09-25T13:57:41.613Z,10.93
2017-09-25T14:02:47.654Z,12.77
2017-09-25T14:05:18.651Z,11.03
2017-09-25T14:07:49.677Z,12.50
2017-09-25T14:10:20.743Z,18.10
2017-09-25T14:12:53.512Z,18.37
2017-09-25T14:15:24.592Z,17.37
2017-09-25T14:17:55.661Z,15.83
2017-09-25T14:20:26.766Z,11.23
2017-09-25T14:22:57.833Z,15.23
2017-09-25T14:25:29.774Z,13.30
2017-09-25T14:28:01.554Z,18.93
2017-09-25T14:30:32.856Z,15.40
2017-09-25T14:33:04.863Z,13.40
2017-09-25T14:35:35.881Z,17.33
2017-09-25T14:38:07.777Z,16.13
2017-09-25T14:40:38.877Z,12.80
2017-09-25T14:43:10.907Z,20.03
2017-09-25T14:45:41.981Z,22.67
2017-09-25T14:48:13.808Z,17.60
2017-09-25T14:50:44.829Z,16.43
2017-09-25T14:53:15.818Z,25.60
2017-09-25T14:55:47.894Z,18.87
2017-09-25T14:58:19.769Z,27.10
2017-09-25T15:00:50.744Z,21.43
2017-09-25T15:03:22.844Z,18.93
2017-09-25T15:05:54.672Z,23.27
2017-09-25T15:08:26.105Z,30.87
2017-09-25T15:10:57.118Z,20.93
2017-09-25T15:13:28.370Z,41.17
2017-09-25T15:15:59.396Z,29.63
2017-09-25T15:18:31.182Z,24.57
2017-09-25T15:21:02.184Z,23.47
2017-09-25T15:23:34.128Z,29.47
2017-09-25T15:26:05.602Z,27.40
2017-09-25T15:28:37.484Z,27.83
2017-09-25T15:31:08.590Z,27.73
2017-09-25T15:33:40.397Z,34.73
2017-09-25T15:36:11.388Z,20.07
2017-09-25T15:38:42.637Z,41.03
2017-09-25T15:41:14.442Z,30.50
2017-09-25T15:43:45.665Z,28.37
2017-09-25T15:46:16.664Z,31.60
2017-09-25T15:48:47.667Z,28.83
2017-09-25T15:51:18.733Z,31.87
2017-09-25T15:53:49.763Z,36.73
2017-09-25T15:56:23.753Z,33.73
2017-09-25T15:58:54.777Z,33.13
2017-09-25T16:01:25.848Z,43.03
2017-09-25T16:03:56.882Z,35.77
2017-09-25T16:06:28.667Z,45.73
2017-09-25T16:09:00.060Z,32.73
2017-09-25T16:11:31.853Z,33.93
2017-09-25T16:14:03.422Z,36.10
2017-09-25T16:16:34.493Z,33.97
2017-09-25T16:19:06.289Z,35.17
2017-09-25T16:21:37.290Z,32.30
2017-09-25T16:24:08.427Z,42.07
2017-09-25T16:26:40.202Z,38.90
2017-09-25T16:29:11.983Z,46.63
2017-09-25T16:31:42.977Z,32.13
2017-09-25T16:34:13.990Z,34.20
2017-09-25T16:36:45.067Z,33.83
2017-09-25T16:39:16.294Z,30.07
2017-09-25T16:41:47.498Z,37.90
2017-09-25T16:44:19.773Z,42.63
2017-09-25T16:46:55.782Z,36.20
2017-09-25T16:49:27.069Z,36.27
2017-09-25T16:51:58.070Z,40.90
2017-09-25T16:54:29.086Z,31.23
2017-09-25T16:57:00.374Z,37.00
2017-09-25T16:59:32.432Z,53.03
2017-09-25T17:02:03.493Z,37.97
2017-09-25T17:04:35.287Z,28.00
2017-09-25T17:07:06.329Z,41.77
2017-09-25T17:09:39.325Z,35.10
2017-09-25T17:12:10.319Z,38.20
2017-09-25T17:14:42.156Z,30.93
2017-09-25T17:17:13.970Z,31.73
2017-09-25T17:19:44.951Z,33.10
2017-09-25T17:22:17.131Z,39.17
2017-09-25T17:24:49.230Z,33.37
2017-09-25T17:27:21.471Z,47.67
2017-09-25T17:29:53.261Z,36.63
2017-09-25T17:32:24.277Z,40.13
2017-09-25T17:34:56.061Z,33.93
2017-09-25T17:37:27.077Z,37.50
2017-09-25T17:39:59.416Z,35.53
2017-09-25T17:42:30.497Z,40.57
2017-09-25T17:45:01.523Z,46.13
2017-09-25T17:47:33.239Z,46.17
2017-09-25T17:50:04.162Z,39.33
2017-09-25T17:52:35.781Z,33.60
2017-09-25T17:55:07.465Z,32.00
2017-09-25T17:57:38.579Z,37.47
2017-09-25T18:00:10.284Z,41.60
2017-09-25T18:02:41.198Z,38.73
2017-09-25T18:05:12.116Z,33.40
2017-09-25T18:07:43.831Z,47.73
2017-09-25T18:10:15.292Z,34.97
2017-09-25T18:12:46.203Z,33.83
2017-09-25T18:15:17.154Z,37.70
2017-09-25T18:17:48.069Z,34.07
2017-09-25T18:20:18.966Z,32.83
2017-09-25T18:22:51.122Z,40.70
2017-09-25T18:25:22.042Z,40.23
2017-09-25T18:27:53.451Z,37.03
2017-09-25T18:30:25.079Z,34.43
2017-09-25T18:32:56.775Z,43.37
2017-09-25T18:35:27.711Z,31.50
2017-09-25T18:37:58.626Z,24.50
2017-09-25T18:40:30.798Z,24.37
2017-09-25T18:43:01.752Z,26.83
2017-09-25T18:45:32.687Z,27.53
2017-09-25T18:48:03.627Z,24.27
2017-09-25T18:50:34.528Z,29.10
2017-09-25T18:53:05.447Z,33.37
2017-09-25T18:55:36.404Z,38.73
2017-09-25T18:58:07.485Z,25.70
2017-09-25T19:00:38.422Z,24.03
2017-09-25T19:03:09.363Z,30.43
2017-09-25T19:05:40.257Z,28.73
2017-09-25T19:08:11.187Z,22.97
2017-09-25T19:10:42.618Z,24.77
2017-09-25T19:13:13.538Z,25.40
2017-09-25T19:15:44.459Z,29.27
2017-09-25T19:18:15.502Z,29.17
2017-09-25T19:20:46.443Z,28.20
2017-09-25T19:23:17.375Z,25.67
2017-09-25T19:25:48.302Z,32.37
2017-09-25T19:28:21.073Z,28.60
2017-09-25T19:30:52.755Z,26.00
2017-09-25T19:33:23.663Z,42.73
2017-09-25T19:35:55.353Z,36.80
2017-09-25T19:38:26.298Z,34.80
2017-09-25T19:40:57.775Z,31.40
2017-09-25T19:43:28.687Z,29.90
2017-09-25T19:45:59.900Z,31.07
2017-09-25T19:48:32.767Z,56.20
2017-09-25T19:51:06.863Z,33.13
2017-09-25T19:53:38.375Z,33.70
2017-09-25T19:56:23.728Z,35.50
2017-09-25T19:58:56.675Z,27.20
2017-09-25T20:01:27.896Z,31.83
2017-09-25T20:03:59.082Z,28.13
2017-09-25T20:06:30.572Z,23.43
2017-09-25T20:09:01.789Z,35.73
2017-09-25T20:11:34.550Z,27.93
2017-09-25T20:14:20.691Z,28.17
2017-09-25T20:16:56.670Z,38.13
2017-09-25T20:19:27.842Z,24.23
2017-09-25T20:21:58.791Z,36.67
2017-09-25T20:24:29.726Z,28.13
2017-09-25T20:27:00.646Z,25.13
2017-09-25T20:29:31.566Z,25.60
2017-09-25T20:32:03.409Z,28.20
2017-09-25T20:34:34.307Z,27.30
2017-09-25T20:37:06.270Z,37.57
2017-09-25T20:39:38.238Z,25.50
2017-09-25T20:42:27.367Z,26.70
2017-09-25T20:44:58.606Z,22.83
2017-09-25T20:47:29.674Z,22.83
2017-09-25T20:50:00.953Z,25.83
2017-09-25T20:52:31.891Z,23.20
2017-09-25T20:55:03.553Z,22.80
2017-09-25T20:57:34.604Z,26.27
2017-09-25T21:00:05.268Z,24.03
2017-09-25T21:02:37.907Z,28.13
2017-09-25T21:05:08.835Z,24.37
2017-09-25T21:07:40.546Z,39.17
2017-09-25T21:10:11.498Z,43.27
2017-09-25T21:12:42.430Z,29.53
2017-09-25T21:15:13.412Z,27.73
2017-09-25T21:17:44.331Z,29.20
2017-09-25T21:20:17.230Z,34.87
2017-09-25T21:22:49.204Z,33.90
2017-09-25T21:25:20.421Z,31.50
2017-09-25T21:27:52.982Z,36.00
2017-09-25T21:30:23.889Z,35.90
2017-09-25T21:32:55.755Z,34.77
2017-09-25T21:35:26.673Z,40.23
2017-09-25T21:37:57.664Z,40.87
2017-09-25T21:40:28.579Z,41.77
2017-09-25T21:42:59.501Z,37.40
2017-09-25T21:45:30.436Z,59.93
2017-09-25T21:48:01.350Z,49.20
2017-09-25T21:50:32.567Z,45.83
2017-09-25T21:53:03.511Z,45.87
2017-09-25T21:55:35.207Z,46.57
2017-09-25T21:58:06.954Z,44.10
2017-09-25T22:00:37.883Z,40.80
2017-09-25T22:03:11.841Z,42.80
2017-09-25T22:05:43.475Z,35.00
2017-09-25T22:08:14.448Z,25.10
2017-09-25T22:10:45.344Z,18.70
2017-09-25T22:13:17.052Z,20.83
2017-09-25T22:15:50.020Z,19.83
2017-09-25T22:18:20.918Z,18.97
2017-09-25T22:20:52.155Z,16.10
2017-09-25T22:23:23.227Z,19.57
2017-09-25T22:25:54.163Z,27.17
2017-09-25T22:28:25.080Z,15.37
2017-09-25T22:30:57.036Z,17.83
2017-09-25T22:33:29.571Z,20.23
2017-09-25T22:36:00.759Z,19.40
2017-09-25T22:38:31.966Z,28.50
2017-09-25T22:41:03.155Z,19.60
2017-09-25T22:43:36.874Z,26.80
2017-09-25T22:46:08.192Z,22.73
2017-09-25T22:48:39.151Z,18.53
2017-09-25T22:51:11.575Z,19.53
2017-09-25T22:53:42.478Z,32.63
2017-09-25T22:56:13.633Z,18.13
2017-09-25T22:58:44.591Z,18.00
2017-09-25T23:01:15.498Z,22.10
2017-09-25T23:03:47.764Z,14.20
2017-09-25T23:06:18.720Z,15.63
2017-09-25T23:08:50.020Z,20.17
2017-09-25T23:11:33.462Z,23.63
2017-09-25T23:14:04.654Z,16.93
2017-09-25T23:16:36.861Z,15.70
2017-09-25T23:19:07.987Z,20.27
2017-09-25T23:21:39.725Z,17.80
2017-09-25T23:24:10.855Z,23.07
2017-09-25T23:26:42.013Z,16.10
2017-09-25T23:29:15.214Z,21.50
2017-09-25T23:31:46.967Z,18.20
2017-09-25T23:34:19.687Z,15.23
2017-09-25T23:36:50.587Z,15.57
2017-09-25T23:39:22.279Z,15.07
2017-09-25T23:41:54.015Z,15.10
2017-09-25T23:44:25.068Z,18.33
2017-09-25T23:46:56.416Z,23.17
2017-09-25T23:49:27.431Z,20.70
2017-09-25T23:51:59.277Z,17.90
2017-09-25T23:54:30.275Z,19.67
2017-09-25T23:57:01.283Z,16.77
2017-09-25T23:59:32.727Z,14.87
